sensor_id;sensor_type;location;lat;lon;timestamp;temperature;humidity
49489;SHT31;35382;51.484;11.476;2023-08-21T00:01:38;19.79;87.53
49489;SHT31;35382;51.484;11.476;2023-08-21T00:04:03;19.72;87.82
49489;SHT31;35382;51.484;11.476;2023-08-21T00:06:29;19.86;87.19
49489;SHT31;35382;51.484;11.476;2023-08-21T00:08:54;19.85;87.78
49489;SHT31;35382;51.484;11.476;2023-08-21T00:11:20;19.82;86.79
49489;SHT31;35382;51.484;11.476;2023-08-21T00:13:45;19.75;87.32
49489;SHT31;35382;51.484;11.476;2023-08-21T00:16:11;19.54;87.82
49489;SHT31;35382;51.484;11.476;2023-08-21T00:18:38;19.55;88.06
49489;SHT31;35382;51.484;11.476;2023-08-21T00:21:04;19.54;88.21
49489;SHT31;35382;51.484;11.476;2023-08-21T00:23:29;19.39;89.10
49489;SHT31;35382;51.484;11.476;2023-08-21T00:25:55;19.52;88.06
49489;SHT31;35382;51.484;11.476;2023-08-21T00:28:20;19.34;88.77
49489;SHT31;35382;51.484;11.476;2023-08-21T00:30:45;19.27;89.49
49489;SHT31;35382;51.484;11.476;2023-08-21T00:33:11;19.18;89.89
49489;SHT31;35382;51.484;11.476;2023-08-21T00:35:36;19.35;89.29
49489;SHT31;35382;51.484;11.476;2023-08-21T00:38:02;19.34;88.90
49489;SHT31;35382;51.484;11.476;2023-08-21T00:40:27;19.22;89.25
49489;SHT31;35382;51.484;11.476;2023-08-21T00:42:53;19.05;90.05
49489;SHT31;35382;51.484;11.476;2023-08-21T00:45:19;19.01;89.99
49489;SHT31;35382;51.484;11.476;2023-08-21T00:47:45;18.95;90.48
49489;SHT31;35382;51.484;11.476;2023-08-21T00:50:12;18.90;90.95
49489;SHT31;35382;51.484;11.476;2023-08-21T00:52:40;18.95;91.15
49489;SHT31;35382;51.484;11.476;2023-08-21T00:55:09;18.94;90.76
49489;SHT31;35382;51.484;11.476;2023-08-21T00:57:36;18.90;91.04
49489;SHT31;35382;51.484;11.476;2023-08-21T01:00:02;18.98;90.53
49489;SHT31;35382;51.484;11.476;2023-08-21T01:02:28;19.01;90.18
49489;SHT31;35382;51.484;11.476;2023-08-21T01:04:53;19.07;89.89
49489;SHT31;35382;51.484;11.476;2023-08-21T01:07:19;19.08;89.82
49489;SHT31;35382;51.484;11.476;2023-08-21T01:09:54;19.14;88.93
49489;SHT31;35382;51.484;11.476;2023-08-21T01:12:49;19.08;89.52
49489;SHT31;35382;51.484;11.476;2023-08-21T01:15:16;19.12;89.63
49489;SHT31;35382;51.484;11.476;2023-08-21T01:17:43;19.12;89.98
49489;SHT31;35382;51.484;11.476;2023-08-21T01:20:09;19.08;89.74
49489;SHT31;35382;51.484;11.476;2023-08-21T01:22:36;19.29;89.16
49489;SHT31;35382;51.484;11.476;2023-08-21T01:25:03;19.28;89.25
49489;SHT31;35382;51.484;11.476;2023-08-21T01:27:28;19.21;89.72
49489;SHT31;35382;51.484;11.476;2023-08-21T01:29:54;19.41;89.08
49489;SHT31;35382;51.484;11.476;2023-08-21T01:32:25;19.45;88.84
49489;SHT31;35382;51.484;11.476;2023-08-21T01:34:55;19.44;89.17
49489;SHT31;35382;51.484;11.476;2023-08-21T01:37:22;19.55;88.79
49489;SHT31;35382;51.484;11.476;2023-08-21T01:39:48;19.48;89.60
49489;SHT31;35382;51.484;11.476;2023-08-21T01:42:14;19.52;89.09
49489;SHT31;35382;51.484;11.476;2023-08-21T01:44:39;19.79;88.46
49489;SHT31;35382;51.484;11.476;2023-08-21T01:47:06;19.92;88.29
49489;SHT31;35382;51.484;11.476;2023-08-21T01:49:31;19.95;88.48
49489;SHT31;35382;51.484;11.476;2023-08-21T01:51:57;20.04;87.83
49489;SHT31;35382;51.484;11.476;2023-08-21T01:54:24;20.09;87.75
49489;SHT31;35382;51.484;11.476;2023-08-21T01:56:49;20.32;86.62
49489;SHT31;35382;51.484;11.476;2023-08-21T01:59:16;20.53;85.94
49489;SHT31;35382;51.484;11.476;2023-08-21T02:01:41;20.63;85.60
49489;SHT31;35382;51.484;11.476;2023-08-21T02:04:07;20.63;85.27
49489;SHT31;35382;51.484;11.476;2023-08-21T02:06:32;20.63;85.52
49489;SHT31;35382;51.484;11.476;2023-08-21T02:08:57;20.69;84.35
49489;SHT31;35382;51.484;11.476;2023-08-21T02:11:23;20.63;84.84
49489;SHT31;35382;51.484;11.476;2023-08-21T02:13:50;20.60;84.67
49489;SHT31;35382;51.484;11.476;2023-08-21T02:16:16;20.54;84.86
49489;SHT31;35382;51.484;11.476;2023-08-21T02:18:41;20.46;85.50
49489;SHT31;35382;51.484;11.476;2023-08-21T02:21:09;20.47;85.19
49489;SHT31;35382;51.484;11.476;2023-08-21T02:23:34;20.44;84.88
49489;SHT31;35382;51.484;11.476;2023-08-21T02:26:00;20.41;84.31
49489;SHT31;35382;51.484;11.476;2023-08-21T02:28:25;20.43;83.99
49489;SHT31;35382;51.484;11.476;2023-08-21T02:30:50;20.36;84.39
49489;SHT31;35382;51.484;11.476;2023-08-21T02:33:16;20.32;84.64
49489;SHT31;35382;51.484;11.476;2023-08-21T02:35:43;20.41;83.98
49489;SHT31;35382;51.484;11.476;2023-08-21T02:38:08;20.54;83.60
49489;SHT31;35382;51.484;11.476;2023-08-21T02:40:35;20.53;83.84
49489;SHT31;35382;51.484;11.476;2023-08-21T02:43:00;20.64;82.96
49489;SHT31;35382;51.484;11.476;2023-08-21T02:45:26;20.83;82.04
49489;SHT31;35382;51.484;11.476;2023-08-21T02:47:51;20.66;82.43
49489;SHT31;35382;51.484;11.476;2023-08-21T02:50:16;20.69;82.43
49489;SHT31;35382;51.484;11.476;2023-08-21T02:52:42;20.49;83.67
49489;SHT31;35382;51.484;11.476;2023-08-21T02:55:08;20.50;82.90
49489;SHT31;35382;51.484;11.476;2023-08-21T02:57:33;20.43;83.53
49489;SHT31;35382;51.484;11.476;2023-08-21T02:59:59;20.59;82.80
49489;SHT31;35382;51.484;11.476;2023-08-21T03:02:24;20.39;83.71
49489;SHT31;35382;51.484;11.476;2023-08-21T03:04:52;20.39;83.58
49489;SHT31;35382;51.484;11.476;2023-08-21T03:07:17;20.34;83.85
49489;SHT31;35382;51.484;11.476;2023-08-21T03:09:45;20.19;84.13
49489;SHT31;35382;51.484;11.476;2023-08-21T03:12:10;20.46;82.73
49489;SHT31;35382;51.484;11.476;2023-08-21T03:14:36;20.39;82.84
49489;SHT31;35382;51.484;11.476;2023-08-21T03:17:01;20.36;82.83
49489;SHT31;35382;51.484;11.476;2023-08-21T03:19:27;20.39;82.72
49489;SHT31;35382;51.484;11.476;2023-08-21T03:21:53;20.22;83.16
49489;SHT31;35382;51.484;11.476;2023-08-21T03:24:19;20.22;83.32
49489;SHT31;35382;51.484;11.476;2023-08-21T03:26:45;20.29;82.91
49489;SHT31;35382;51.484;11.476;2023-08-21T03:29:10;20.25;83.69
49489;SHT31;35382;51.484;11.476;2023-08-21T03:31:36;20.26;83.57
49489;SHT31;35382;51.484;11.476;2023-08-21T03:34:01;20.54;82.31
49489;SHT31;35382;51.484;11.476;2023-08-21T03:36:27;20.46;83.10
49489;SHT31;35382;51.484;11.476;2023-08-21T03:38:52;20.50;82.58
49489;SHT31;35382;51.484;11.476;2023-08-21T03:41:18;20.49;82.35
49489;SHT31;35382;51.484;11.476;2023-08-21T03:43:43;20.62;82.24
49489;SHT31;35382;51.484;11.476;2023-08-21T03:46:09;20.67;81.98
49489;SHT31;35382;51.484;11.476;2023-08-21T03:48:34;20.66;81.34
49489;SHT31;35382;51.484;11.476;2023-08-21T03:51:01;20.79;80.78
49489;SHT31;35382;51.484;11.476;2023-08-21T03:53:26;20.81;80.52
49489;SHT31;35382;51.484;11.476;2023-08-21T03:55:52;20.87;80.35
49489;SHT31;35382;51.484;11.476;2023-08-21T03:58:17;20.81;80.64
49489;SHT31;35382;51.484;11.476;2023-08-21T04:00:42;20.76;80.91
49489;SHT31;35382;51.484;11.476;2023-08-21T04:03:08;20.87;80.16
49489;SHT31;35382;51.484;11.476;2023-08-21T04:05:33;20.73;81.48
49489;SHT31;35382;51.484;11.476;2023-08-21T04:07:59;20.84;80.31
49489;SHT31;35382;51.484;11.476;2023-08-21T04:10:25;20.76;80.62
49489;SHT31;35382;51.484;11.476;2023-08-21T04:12:50;20.77;80.52
49489;SHT31;35382;51.484;11.476;2023-08-21T04:15:17;20.88;79.97
49489;SHT31;35382;51.484;11.476;2023-08-21T04:17:43;20.88;80.18
49489;SHT31;35382;51.484;11.476;2023-08-21T04:20:08;20.74;80.80
49489;SHT31;35382;51.484;11.476;2023-08-21T04:22:34;20.97;79.47
49489;SHT31;35382;51.484;11.476;2023-08-21T04:25:00;20.77;80.62
49489;SHT31;35382;51.484;11.476;2023-08-21T04:27:25;20.80;80.91
49489;SHT31;35382;51.484;11.476;2023-08-21T04:29:51;20.83;80.42
49489;SHT31;35382;51.484;11.476;2023-08-21T04:32:16;20.98;79.87
49489;SHT31;35382;51.484;11.476;2023-08-21T04:34:45;20.94;80.35
49489;SHT31;35382;51.484;11.476;2023-08-21T04:37:10;20.84;80.91
49489;SHT31;35382;51.484;11.476;2023-08-21T04:39:36;20.86;80.61
49489;SHT31;35382;51.484;11.476;2023-08-21T04:42:02;21.01;79.92
49489;SHT31;35382;51.484;11.476;2023-08-21T04:44:30;21.08;79.61
49489;SHT31;35382;51.484;11.476;2023-08-21T04:46:56;21.07;79.81
49489;SHT31;35382;51.484;11.476;2023-08-21T04:49:21;21.23;78.97
49489;SHT31;35382;51.484;11.476;2023-08-21T04:51:47;21.30;78.82
49489;SHT31;35382;51.484;11.476;2023-08-21T04:54:12;21.27;79.15
49489;SHT31;35382;51.484;11.476;2023-08-21T04:56:38;21.20;79.55
49489;SHT31;35382;51.484;11.476;2023-08-21T04:59:04;21.23;79.26
49489;SHT31;35382;51.484;11.476;2023-08-21T05:01:30;21.27;79.07
49489;SHT31;35382;51.484;11.476;2023-08-21T05:03:58;21.11;79.81
49489;SHT31;35382;51.484;11.476;2023-08-21T05:06:23;21.04;80.70
49489;SHT31;35382;51.484;11.476;2023-08-21T05:08:50;21.14;79.99
49489;SHT31;35382;51.484;11.476;2023-08-21T05:11:15;21.07;80.18
49489;SHT31;35382;51.484;11.476;2023-08-21T05:13:42;20.98;80.70
49489;SHT31;35382;51.484;11.476;2023-08-21T05:16:09;21.07;79.98
49489;SHT31;35382;51.484;11.476;2023-08-21T05:18:37;20.91;80.93
49489;SHT31;35382;51.484;11.476;2023-08-21T05:21:03;20.96;81.10
49489;SHT31;35382;51.484;11.476;2023-08-21T05:23:29;20.90;81.21
49489;SHT31;35382;51.484;11.476;2023-08-21T05:26:02;21.11;80.11
49489;SHT31;35382;51.484;11.476;2023-08-21T05:28:28;21.06;80.39
49489;SHT31;35382;51.484;11.476;2023-08-21T05:30:53;21.12;80.15
49489;SHT31;35382;51.484;11.476;2023-08-21T05:33:20;20.73;82.81
49489;SHT31;35382;51.484;11.476;2023-08-21T05:35:48;20.26;85.45
49489;SHT31;35382;51.484;11.476;2023-08-21T05:38:13;19.87;89.38
49489;SHT31;35382;51.484;11.476;2023-08-21T05:40:40;19.55;91.78
49489;SHT31;35382;51.484;11.476;2023-08-21T05:43:07;19.36;92.37
49489;SHT31;35382;51.484;11.476;2023-08-21T05:45:32;19.32;92.41
49489;SHT31;35382;51.484;11.476;2023-08-21T05:47:58;19.21;92.51
49489;SHT31;35382;51.484;11.476;2023-08-21T05:50:24;19.15;93.15
49489;SHT31;35382;51.484;11.476;2023-08-21T05:52:49;19.21;93.24
49489;SHT31;35382;51.484;11.476;2023-08-21T05:55:15;19.31;92.53
49489;SHT31;35382;51.484;11.476;2023-08-21T05:57:40;19.18;93.25
49489;SHT31;35382;51.484;11.476;2023-08-21T06:00:12;19.21;93.91
49489;SHT31;35382;51.484;11.476;2023-08-21T06:02:40;19.21;94.11
49489;SHT31;35382;51.484;11.476;2023-08-21T06:05:06;19.17;94.11
49489;SHT31;35382;51.484;11.476;2023-08-21T06:07:33;19.21;94.45
49489;SHT31;35382;51.484;11.476;2023-08-21T06:09:58;19.14;94.41
49489;SHT31;35382;51.484;11.476;2023-08-21T06:12:26;19.21;94.17
49489;SHT31;35382;51.484;11.476;2023-08-21T06:14:53;19.17;94.36
49489;SHT31;35382;51.484;11.476;2023-08-21T06:17:19;19.25;93.58
49489;SHT31;35382;51.484;11.476;2023-08-21T06:19:44;19.25;93.46
49489;SHT31;35382;51.484;11.476;2023-08-21T06:22:09;19.39;93.94
49489;SHT31;35382;51.484;11.476;2023-08-21T06:24:35;19.44;94.30
49489;SHT31;35382;51.484;11.476;2023-08-21T06:27:02;19.51;94.61
49489;SHT31;35382;51.484;11.476;2023-08-21T06:29:29;19.52;94.76
49489;SHT31;35382;51.484;11.476;2023-08-21T06:31:54;19.66;94.29
49489;SHT31;35382;51.484;11.476;2023-08-21T06:34:21;19.45;94.16
49489;SHT31;35382;51.484;11.476;2023-08-21T06:36:46;19.55;94.28
49489;SHT31;35382;51.484;11.476;2023-08-21T06:39:14;19.65;94.68
49489;SHT31;35382;51.484;11.476;2023-08-21T06:41:39;19.76;94.30
49489;SHT31;35382;51.484;11.476;2023-08-21T06:44:04;19.75;94.20
49489;SHT31;35382;51.484;11.476;2023-08-21T06:46:30;19.85;93.58
49489;SHT31;35382;51.484;11.476;2023-08-21T06:48:56;19.96;93.39
49489;SHT31;35382;51.484;11.476;2023-08-21T06:51:29;20.13;93.57
49489;SHT31;35382;51.484;11.476;2023-08-21T06:53:54;20.28;93.22
49489;SHT31;35382;51.484;11.476;2023-08-21T06:56:19;20.39;92.39
49489;SHT31;35382;51.484;11.476;2023-08-21T06:58:45;20.47;91.86
49489;SHT31;35382;51.484;11.476;2023-08-21T07:01:10;20.67;91.55
49489;SHT31;35382;51.484;11.476;2023-08-21T07:03:36;20.88;90.18
49489;SHT31;35382;51.484;11.476;2023-08-21T07:06:01;21.04;90.14
49489;SHT31;35382;51.484;11.476;2023-08-21T07:08:27;21.17;87.12
49489;SHT31;35382;51.484;11.476;2023-08-21T07:10:53;21.37;86.36
49489;SHT31;35382;51.484;11.476;2023-08-21T07:13:19;21.84;86.19
49489;SHT31;35382;51.484;11.476;2023-08-21T07:15:45;21.77;86.83
49489;SHT31;35382;51.484;11.476;2023-08-21T07:18:11;21.85;84.33
49489;SHT31;35382;51.484;11.476;2023-08-21T07:20:36;22.29;84.90
49489;SHT31;35382;51.484;11.476;2023-08-21T07:23:02;22.64;84.03
49489;SHT31;35382;51.484;11.476;2023-08-21T07:25:27;22.32;83.28
49489;SHT31;35382;51.484;11.476;2023-08-21T07:27:55;22.87;82.64
49489;SHT31;35382;51.484;11.476;2023-08-21T07:30:20;22.86;83.33
49489;SHT31;35382;51.484;11.476;2023-08-21T07:32:46;22.96;80.76
49489;SHT31;35382;51.484;11.476;2023-08-21T07:35:12;22.74;82.23
49489;SHT31;35382;51.484;11.476;2023-08-21T07:37:37;23.24;82.05
49489;SHT31;35382;51.484;11.476;2023-08-21T07:40:04;23.72;80.76
49489;SHT31;35382;51.484;11.476;2023-08-21T07:42:29;23.70;79.39
49489;SHT31;35382;51.484;11.476;2023-08-21T07:44:55;23.93;78.84
49489;SHT31;35382;51.484;11.476;2023-08-21T07:47:20;23.94;79.06
49489;SHT31;35382;51.484;11.476;2023-08-21T07:49:46;24.18;76.90
49489;SHT31;35382;51.484;11.476;2023-08-21T07:52:11;24.48;77.84
49489;SHT31;35382;51.484;11.476;2023-08-21T07:54:36;24.73;75.99
49489;SHT31;35382;51.484;11.476;2023-08-21T07:57:04;24.71;76.49
49489;SHT31;35382;51.484;11.476;2023-08-21T07:59:29;24.42;77.90
49489;SHT31;35382;51.484;11.476;2023-08-21T08:01:55;24.43;77.28
49489;SHT31;35382;51.484;11.476;2023-08-21T08:04:20;24.61;76.23
49489;SHT31;35382;51.484;11.476;2023-08-21T08:06:45;25.00;75.33
49489;SHT31;35382;51.484;11.476;2023-08-21T08:09:11;24.85;75.22
49489;SHT31;35382;51.484;11.476;2023-08-21T08:11:38;25.09;74.74
49489;SHT31;35382;51.484;11.476;2023-08-21T08:14:03;25.12;75.37
49489;SHT31;35382;51.484;11.476;2023-08-21T08:16:30;25.16;72.34
49489;SHT31;35382;51.484;11.476;2023-08-21T08:18:56;25.26;71.72
49489;SHT31;35382;51.484;11.476;2023-08-21T08:21:22;25.47;71.87
49489;SHT31;35382;51.484;11.476;2023-08-21T08:23:49;25.43;71.62
49489;SHT31;35382;51.484;11.476;2023-08-21T08:26:15;25.61;71.34
49489;SHT31;35382;51.484;11.476;2023-08-21T08:28:40;25.59;71.15
49489;SHT31;35382;51.484;11.476;2023-08-21T08:31:05;25.50;71.71
49489;SHT31;35382;51.484;11.476;2023-08-21T08:33:31;25.80;70.82
49489;SHT31;35382;51.484;11.476;2023-08-21T08:35:56;25.88;71.41
49489;SHT31;35382;51.484;11.476;2023-08-21T08:38:23;25.67;69.75
49489;SHT31;35382;51.484;11.476;2023-08-21T08:40:50;25.85;70.94
49489;SHT31;35382;51.484;11.476;2023-08-21T08:43:16;26.11;69.46
49489;SHT31;35382;51.484;11.476;2023-08-21T08:45:44;26.08;67.27
49489;SHT31;35382;51.484;11.476;2023-08-21T08:48:13;26.28;66.41
49489;SHT31;35382;51.484;11.476;2023-08-21T08:50:39;26.11;68.59
49489;SHT31;35382;51.484;11.476;2023-08-21T08:53:06;26.11;67.34
49489;SHT31;35382;51.484;11.476;2023-08-21T08:55:33;26.25;68.64
49489;SHT31;35382;51.484;11.476;2023-08-21T08:57:58;26.17;64.99
49489;SHT31;35382;51.484;11.476;2023-08-21T09:00:25;26.17;65.79
49489;SHT31;35382;51.484;11.476;2023-08-21T09:02:51;26.28;64.74
49489;SHT31;35382;51.484;11.476;2023-08-21T09:05:17;26.73;66.32
49489;SHT31;35382;51.484;11.476;2023-08-21T09:07:42;26.28;64.84
49489;SHT31;35382;51.484;11.476;2023-08-21T09:10:15;26.18;65.62
49489;SHT31;35382;51.484;11.476;2023-08-21T09:12:45;26.45;66.82
49489;SHT31;35382;51.484;11.476;2023-08-21T09:15:10;26.72;63.46
49489;SHT31;35382;51.484;11.476;2023-08-21T09:17:36;26.59;62.83
49489;SHT31;35382;51.484;11.476;2023-08-21T09:20:05;26.51;63.85
49489;SHT31;35382;51.484;11.476;2023-08-21T09:22:32;26.65;63.18
49489;SHT31;35382;51.484;11.476;2023-08-21T09:27:30;26.55;61.62
49489;SHT31;35382;51.484;11.476;2023-08-21T09:29:57;26.65;62.55
49489;SHT31;35382;51.484;11.476;2023-08-21T09:32:23;26.95;61.17
49489;SHT31;35382;51.484;11.476;2023-08-21T09:34:48;27.23;63.58
49489;SHT31;35382;51.484;11.476;2023-08-21T09:37:16;27.27;62.24
49489;SHT31;35382;51.484;11.476;2023-08-21T09:39:41;27.51;63.05
49489;SHT31;35382;51.484;11.476;2023-08-21T09:42:07;27.45;60.85
49489;SHT31;35382;51.484;11.476;2023-08-21T09:44:41;27.37;58.11
49489;SHT31;35382;51.484;11.476;2023-08-21T09:47:11;27.33;60.46
49489;SHT31;35382;51.484;11.476;2023-08-21T09:49:39;27.79;62.66
49489;SHT31;35382;51.484;11.476;2023-08-21T09:52:06;27.60;62.05
49489;SHT31;35382;51.484;11.476;2023-08-21T09:54:33;28.01;61.44
49489;SHT31;35382;51.484;11.476;2023-08-21T09:57:03;27.89;62.54
49489;SHT31;35382;51.484;11.476;2023-08-21T09:59:32;27.70;61.06
49489;SHT31;35382;51.484;11.476;2023-08-21T10:01:59;27.51;58.72
49489;SHT31;35382;51.484;11.476;2023-08-21T10:04:25;27.12;56.91
49489;SHT31;35382;51.484;11.476;2023-08-21T10:06:54;27.26;57.15
49489;SHT31;35382;51.484;11.476;2023-08-21T10:09:21;27.20;58.12
49489;SHT31;35382;51.484;11.476;2023-08-21T10:11:48;27.81;60.00
49489;SHT31;35382;51.484;11.476;2023-08-21T10:14:14;27.53;55.62
49489;SHT31;35382;51.484;11.476;2023-08-21T10:16:40;27.39;58.85
49489;SHT31;35382;51.484;11.476;2023-08-21T10:19:07;27.59;55.49
49489;SHT31;35382;51.484;11.476;2023-08-21T10:21:36;27.73;55.21
49489;SHT31;35382;51.484;11.476;2023-08-21T10:24:02;27.23;54.58
49489;SHT31;35382;51.484;11.476;2023-08-21T10:26:27;27.57;54.18
49489;SHT31;35382;51.484;11.476;2023-08-21T10:28:54;27.30;54.90
49489;SHT31;35382;51.484;11.476;2023-08-21T10:33:53;27.51;55.63
49489;SHT31;35382;51.484;11.476;2023-08-21T10:41:39;27.97;57.74
49489;SHT31;35382;51.484;11.476;2023-08-21T10:44:06;27.90;57.20
49489;SHT31;35382;51.484;11.476;2023-08-21T10:46:50;28.38;58.35
49489;SHT31;35382;51.484;11.476;2023-08-21T10:49:15;28.33;56.32
49489;SHT31;35382;51.484;11.476;2023-08-21T10:51:42;28.29;55.63
49489;SHT31;35382;51.484;11.476;2023-08-21T10:54:13;28.49;59.09
49489;SHT31;35382;51.484;11.476;2023-08-21T10:56:38;28.28;55.54
49489;SHT31;35382;51.484;11.476;2023-08-21T10:59:05;28.31;57.47
49489;SHT31;35382;51.484;11.476;2023-08-21T11:01:46;28.52;58.01
49489;SHT31;35382;51.484;11.476;2023-08-21T11:04:12;28.67;55.61
49489;SHT31;35382;51.484;11.476;2023-08-21T11:06:38;28.88;57.67
49489;SHT31;35382;51.484;11.476;2023-08-21T11:09:05;28.82;56.51
49489;SHT31;35382;51.484;11.476;2023-08-21T11:11:30;27.87;58.07
49489;SHT31;35382;51.484;11.476;2023-08-21T11:13:56;27.49;56.99
49489;SHT31;35382;51.484;11.476;2023-08-21T11:16:24;27.64;59.97
49489;SHT31;35382;51.484;11.476;2023-08-21T11:18:50;28.04;57.18
49489;SHT31;35382;51.484;11.476;2023-08-21T11:21:16;28.03;56.02
49489;SHT31;35382;51.484;11.476;2023-08-21T11:23:42;28.27;54.81
49489;SHT31;35382;51.484;11.476;2023-08-21T11:26:11;28.43;55.94
49489;SHT31;35382;51.484;11.476;2023-08-21T11:28:38;28.47;59.95
49489;SHT31;35382;51.484;11.476;2023-08-21T11:31:03;28.65;55.24
49489;SHT31;35382;51.484;11.476;2023-08-21T11:33:29;28.45;55.34
49489;SHT31;35382;51.484;11.476;2023-08-21T11:35:55;28.22;55.79
49489;SHT31;35382;51.484;11.476;2023-08-21T11:38:22;28.51;56.14
49489;SHT31;35382;51.484;11.476;2023-08-21T11:40:59;28.29;55.70
49489;SHT31;35382;51.484;11.476;2023-08-21T11:46:05;28.45;52.87
49489;SHT31;35382;51.484;11.476;2023-08-21T11:48:30;28.61;56.40
49489;SHT31;35382;51.484;11.476;2023-08-21T11:50:56;28.67;56.28
49489;SHT31;35382;51.484;11.476;2023-08-21T11:53:36;28.72;55.32
49489;SHT31;35382;51.484;11.476;2023-08-21T11:56:03;28.43;55.21
49489;SHT31;35382;51.484;11.476;2023-08-21T11:58:38;28.68;55.76
49489;SHT31;35382;51.484;11.476;2023-08-21T12:01:04;28.94;58.15
49489;SHT31;35382;51.484;11.476;2023-08-21T12:03:30;29.05;56.52
49489;SHT31;35382;51.484;11.476;2023-08-21T12:05:55;29.15;55.30
49489;SHT31;35382;51.484;11.476;2023-08-21T12:08:21;29.18;53.94
49489;SHT31;35382;51.484;11.476;2023-08-21T12:10:50;28.57;57.49
49489;SHT31;35382;51.484;11.476;2023-08-21T12:13:15;28.40;56.88
49489;SHT31;35382;51.484;11.476;2023-08-21T12:15:41;28.62;56.31
49489;SHT31;35382;51.484;11.476;2023-08-21T12:18:06;28.27;56.63
49489;SHT31;35382;51.484;11.476;2023-08-21T12:20:33;28.04;57.11
49489;SHT31;35382;51.484;11.476;2023-08-21T12:22:58;28.00;59.44
49489;SHT31;35382;51.484;11.476;2023-08-21T12:25:24;27.91;59.70
49489;SHT31;35382;51.484;11.476;2023-08-21T12:27:51;27.53;59.55
49489;SHT31;35382;51.484;11.476;2023-08-21T12:30:17;27.93;57.13
49489;SHT31;35382;51.484;11.476;2023-08-21T12:32:42;27.60;57.84
49489;SHT31;35382;51.484;11.476;2023-08-21T12:35:09;27.47;58.94
49489;SHT31;35382;51.484;11.476;2023-08-21T12:37:35;27.02;59.43
49489;SHT31;35382;51.484;11.476;2023-08-21T12:40:00;27.19;60.71
49489;SHT31;35382;51.484;11.476;2023-08-21T12:42:26;27.26;59.47
49489;SHT31;35382;51.484;11.476;2023-08-21T12:44:51;27.20;59.82
49489;SHT31;35382;51.484;11.476;2023-08-21T12:47:16;27.51;59.99
49489;SHT31;35382;51.484;11.476;2023-08-21T12:49:43;28.08;59.04
49489;SHT31;35382;51.484;11.476;2023-08-21T12:52:09;28.59;57.02
49489;SHT31;35382;51.484;11.476;2023-08-21T12:54:34;28.92;56.51
49489;SHT31;35382;51.484;11.476;2023-08-21T12:57:02;28.69;54.67
49489;SHT31;35382;51.484;11.476;2023-08-21T12:59:28;28.43;57.74
49489;SHT31;35382;51.484;11.476;2023-08-21T13:01:54;28.08;58.97
49489;SHT31;35382;51.484;11.476;2023-08-21T13:04:19;27.73;57.02
49489;SHT31;35382;51.484;11.476;2023-08-21T13:06:44;27.51;56.95
49489;SHT31;35382;51.484;11.476;2023-08-21T13:09:10;27.23;59.04
49489;SHT31;35382;51.484;11.476;2023-08-21T13:11:36;27.50;59.13
49489;SHT31;35382;51.484;11.476;2023-08-21T13:14:01;28.07;56.66
49489;SHT31;35382;51.484;11.476;2023-08-21T13:16:27;28.18;56.39
49489;SHT31;35382;51.484;11.476;2023-08-21T13:18:52;27.81;57.55
49489;SHT31;35382;51.484;11.476;2023-08-21T13:21:17;28.05;57.36
49489;SHT31;35382;51.484;11.476;2023-08-21T13:23:43;28.11;58.76
49489;SHT31;35382;51.484;11.476;2023-08-21T13:26:08;27.74;57.45
49489;SHT31;35382;51.484;11.476;2023-08-21T13:28:34;27.80;57.84
49489;SHT31;35382;51.484;11.476;2023-08-21T13:30:59;28.20;59.27
49489;SHT31;35382;51.484;11.476;2023-08-21T13:33:25;28.14;56.04
49489;SHT31;35382;51.484;11.476;2023-08-21T13:35:52;27.97;60.53
49489;SHT31;35382;51.484;11.476;2023-08-21T13:38:19;27.76;58.66
49489;SHT31;35382;51.484;11.476;2023-08-21T13:40:45;27.91;57.09
49489;SHT31;35382;51.484;11.476;2023-08-21T13:43:10;28.29;54.91
49489;SHT31;35382;51.484;11.476;2023-08-21T13:45:37;28.68;54.69
49489;SHT31;35382;51.484;11.476;2023-08-21T13:48:03;28.81;55.73
49489;SHT31;35382;51.484;11.476;2023-08-21T13:50:29;29.05;57.95
49489;SHT31;35382;51.484;11.476;2023-08-21T13:52:54;28.61;55.08
49489;SHT31;35382;51.484;11.476;2023-08-21T13:55:22;28.36;55.72
49489;SHT31;35382;51.484;11.476;2023-08-21T13:57:48;28.24;58.65
49489;SHT31;35382;51.484;11.476;2023-08-21T14:00:14;27.98;59.14
49489;SHT31;35382;51.484;11.476;2023-08-21T14:02:40;28.15;58.18
49489;SHT31;35382;51.484;11.476;2023-08-21T14:05:07;28.49;55.62
49489;SHT31;35382;51.484;11.476;2023-08-21T14:07:33;28.69;53.94
49489;SHT31;35382;51.484;11.476;2023-08-21T14:10:02;28.81;52.69
49489;SHT31;35382;51.484;11.476;2023-08-21T14:12:29;28.96;60.97
49489;SHT31;35382;51.484;11.476;2023-08-21T14:14:55;29.19;54.17
49489;SHT31;35382;51.484;11.476;2023-08-21T14:17:20;29.20;54.36
49489;SHT31;35382;51.484;11.476;2023-08-21T14:19:46;28.36;56.79
49489;SHT31;35382;51.484;11.476;2023-08-21T14:22:11;28.49;57.80
49489;SHT31;35382;51.484;11.476;2023-08-21T14:24:36;28.85;59.37
49489;SHT31;35382;51.484;11.476;2023-08-21T14:27:02;28.40;57.71
49489;SHT31;35382;51.484;11.476;2023-08-21T14:29:27;28.57;56.28
49489;SHT31;35382;51.484;11.476;2023-08-21T14:31:53;28.62;58.94
49489;SHT31;35382;51.484;11.476;2023-08-21T14:34:19;28.68;58.03
49489;SHT31;35382;51.484;11.476;2023-08-21T14:36:45;28.55;55.44
49489;SHT31;35382;51.484;11.476;2023-08-21T14:39:13;28.17;55.53
49489;SHT31;35382;51.484;11.476;2023-08-21T14:41:40;28.10;56.27
49489;SHT31;35382;51.484;11.476;2023-08-21T14:44:06;28.31;56.50
49489;SHT31;35382;51.484;11.476;2023-08-21T14:46:31;27.87;56.99
49489;SHT31;35382;51.484;11.476;2023-08-21T14:48:57;28.11;56.83
49489;SHT31;35382;51.484;11.476;2023-08-21T14:51:22;28.36;57.61
49489;SHT31;35382;51.484;11.476;2023-08-21T14:53:50;28.05;56.97
49489;SHT31;35382;51.484;11.476;2023-08-21T14:56:21;28.41;58.39
49489;SHT31;35382;51.484;11.476;2023-08-21T14:58:50;28.37;57.72
49489;SHT31;35382;51.484;11.476;2023-08-21T15:01:15;28.62;55.99
49489;SHT31;35382;51.484;11.476;2023-08-21T15:03:41;28.43;55.46
49489;SHT31;35382;51.484;11.476;2023-08-21T15:06:07;28.43;55.86
49489;SHT31;35382;51.484;11.476;2023-08-21T15:08:32;28.17;57.31
49489;SHT31;35382;51.484;11.476;2023-08-21T15:10:58;28.57;55.48
49489;SHT31;35382;51.484;11.476;2023-08-21T15:13:23;28.34;57.00
49489;SHT31;35382;51.484;11.476;2023-08-21T15:15:48;28.43;59.40
49489;SHT31;35382;51.484;11.476;2023-08-21T15:18:14;28.38;57.47
49489;SHT31;35382;51.484;11.476;2023-08-21T15:20:39;28.47;57.08
49489;SHT31;35382;51.484;11.476;2023-08-21T15:23:05;28.71;53.55